createdAt,value
2018-06-25T00:00:23.368Z,15.10
2018-06-25T00:05:26.504Z,13.40
2018-06-25T00:10:29.500Z,10.20
2018-06-25T00:15:32.496Z,11.50
2018-06-25T00:20:35.664Z,8.93
2018-06-25T00:25:38.774Z,11.70
2018-06-25T00:30:41.988Z,10.53
2018-06-25T00:35:45.019Z,11.43
2018-06-25T00:40:47.979Z,10.70
2018-06-25T00:45:51.201Z,9.53
2018-06-25T00:50:54.306Z,8.43
2018-06-25T00:55:57.331Z,11.33
2018-06-25T01:01:00.267Z,9.27
2018-06-25T01:06:03.328Z,8.63
2018-06-25T01:11:06.430Z,9.63
2018-06-25T01:16:09.459Z,8.60
2018-06-25T01:21:12.466Z,9.70
2018-06-25T01:26:15.487Z,12.83
2018-06-25T01:31:18.524Z,12.40
2018-06-25T01:36:21.560Z,11.70
2018-06-25T01:41:24.536Z,8.87
2018-06-25T01:46:27.649Z,7.77
2018-06-25T01:51:30.652Z,8.50
2018-06-25T01:56:33.780Z,14.77
2018-06-25T02:01:36.775Z,10.90
2018-06-25T02:06:39.787Z,11.53
2018-06-25T02:11:42.836Z,9.37
2018-06-25T02:16:46.087Z,9.97
2018-06-25T02:21:49.322Z,9.10
2018-06-25T02:26:52.501Z,10.40
2018-06-25T02:31:55.519Z,10.77
2018-06-25T02:36:58.486Z,12.70
2018-06-25T02:42:01.488Z,14.37
2018-06-25T02:47:04.493Z,12.13
2018-06-25T02:52:07.720Z,14.87
2018-06-25T02:57:10.973Z,16.33
2018-06-25T03:02:13.924Z,14.93
2018-06-25T03:07:16.904Z,17.33
2018-06-25T03:12:19.868Z,20.53
2018-06-25T03:17:22.844Z,18.23
2018-06-25T03:22:25.848Z,18.90
2018-06-25T03:27:28.851Z,19.47
2018-06-25T03:32:32.060Z,18.90
2018-06-25T03:37:35.117Z,17.60
2018-06-25T03:42:38.361Z,19.40
2018-06-25T03:47:41.579Z,17.00
2018-06-25T03:52:44.912Z,20.90
2018-06-25T03:57:47.910Z,19.90
2018-06-25T04:02:50.891Z,15.63
2018-06-25T04:07:53.852Z,16.33
2018-06-25T04:12:57.264Z,18.60
2018-06-25T04:18:00.246Z,15.03
2018-06-25T04:23:03.532Z,15.43
2018-06-25T04:28:06.738Z,15.43
2018-06-25T04:33:09.952Z,13.30
2018-06-25T04:38:13.064Z,13.70
2018-06-25T04:43:16.394Z,11.17
2018-06-25T04:48:19.396Z,11.87
2018-06-25T04:53:22.413Z,7.80
2018-06-25T04:58:25.398Z,7.23
2018-06-25T05:03:28.600Z,7.10
2018-06-25T05:08:31.714Z,5.97
2018-06-25T05:13:34.888Z,7.40
2018-06-25T05:18:37.995Z,6.90
2018-06-25T05:23:41.251Z,5.87
2018-06-25T05:28:44.432Z,6.90
2018-06-25T05:33:48.713Z,9.07
2018-06-25T05:38:51.743Z,7.80
2018-06-25T05:43:54.849Z,4.87
2018-06-25T05:48:57.939Z,6.80
2018-06-25T05:54:00.934Z,5.27
2018-06-25T05:59:04.036Z,6.60
2018-06-25T06:04:07.096Z,5.73
2018-06-25T06:09:10.503Z,5.83
2018-06-25T06:14:13.762Z,5.20
2018-06-25T06:19:16.718Z,5.10
2018-06-25T06:24:20.137Z,4.73
2018-06-25T06:29:23.118Z,4.20
2018-06-25T06:34:26.263Z,4.53
2018-06-25T06:39:29.280Z,5.57
2018-06-25T06:44:32.456Z,8.30
2018-06-25T06:49:35.659Z,3.47
2018-06-25T06:54:38.691Z,4.27
2018-06-25T06:59:41.856Z,4.40
2018-06-25T07:04:44.954Z,3.17
2018-06-25T07:09:47.912Z,3.23
2018-06-25T07:14:50.884Z,2.40
2018-06-25T07:19:54.199Z,1.70
2018-06-25T07:24:57.400Z,1.90
2018-06-25T07:30:00.474Z,1.77
2018-06-25T07:35:04.205Z,2.20
2018-06-25T07:40:07.312Z,2.43
2018-06-25T07:45:10.555Z,2.13
2018-06-25T07:50:14.171Z,3.27
2018-06-25T07:55:17.197Z,2.33
2018-06-25T08:00:20.517Z,7.70
2018-06-25T08:05:23.710Z,4.60
2018-06-25T08:10:26.865Z,1.57
2018-06-25T08:15:29.816Z,2.00
2018-06-25T08:20:33.034Z,1.77
2018-06-25T08:25:36.221Z,1.60
2018-06-25T08:30:39.415Z,6.20
2018-06-25T08:35:42.554Z,2.00
2018-06-25T08:40:45.740Z,1.67
2018-06-25T08:45:48.806Z,2.47
2018-06-25T08:50:52.357Z,6.20
2018-06-25T08:55:55.519Z,1.83
2018-06-25T09:00:58.605Z,1.70
2018-06-25T09:06:01.671Z,1.87
2018-06-25T09:11:04.711Z,1.97
2018-06-25T09:16:07.876Z,1.60
2018-06-25T09:21:10.890Z,2.00
2018-06-25T09:26:13.923Z,4.93
2018-06-25T09:31:16.967Z,2.20
2018-06-25T09:36:20.212Z,1.93
2018-06-25T09:41:23.482Z,2.67
2018-06-25T09:46:26.518Z,1.47
2018-06-25T09:51:29.544Z,4.23
2018-06-25T09:56:32.856Z,1.93
2018-06-25T10:01:35.936Z,10.83
2018-06-25T10:06:39.212Z,1.63
2018-06-25T10:11:42.569Z,1.57
2018-06-25T10:16:45.847Z,14.00
2018-06-25T10:21:49.222Z,1.50
2018-06-25T10:26:52.319Z,1.57
2018-06-25T10:31:55.509Z,1.50
2018-06-25T10:36:58.656Z,2.20
2018-06-25T10:42:01.926Z,1.67
2018-06-25T10:47:05.135Z,2.50
2018-06-25T10:52:09.054Z,1.80
2018-06-25T10:57:12.452Z,1.67
2018-06-25T11:02:15.699Z,1.77
2018-06-25T11:07:18.990Z,1.50
2018-06-25T11:12:22.029Z,2.10
2018-06-25T11:17:25.036Z,1.80
2018-06-25T11:22:28.259Z,1.73
2018-06-25T11:27:31.305Z,1.87
2018-06-25T11:32:34.731Z,1.33
2018-06-25T11:37:37.924Z,1.30
2018-06-25T11:42:41.160Z,1.80
2018-06-25T11:47:44.348Z,1.43
2018-06-25T11:52:47.562Z,1.60
2018-06-25T11:57:50.768Z,1.60
2018-06-25T12:02:54.169Z,1.83
2018-06-25T12:07:57.604Z,2.00
2018-06-25T12:13:01.062Z,1.27
2018-06-25T12:18:04.337Z,1.43
2018-06-25T12:23:07.530Z,1.10
2018-06-25T12:28:10.610Z,1.27
2018-06-25T12:33:13.635Z,1.40
2018-06-25T12:38:17.873Z,1.37
2018-06-25T12:43:20.932Z,2.20
2018-06-25T12:48:24.184Z,1.97
2018-06-25T12:53:27.269Z,1.23
2018-06-25T12:58:30.729Z,6.03
2018-06-25T13:03:33.910Z,3.40
2018-06-25T13:08:37.133Z,1.73
2018-06-25T13:13:40.539Z,6.90
2018-06-25T13:18:43.563Z,1.33
2018-06-25T13:23:46.547Z,1.57
2018-06-25T13:28:49.544Z,1.30
2018-06-25T13:33:52.912Z,1.20
2018-06-25T13:38:56.079Z,1.20
2018-06-25T13:43:59.283Z,1.97
2018-06-25T13:49:02.548Z,19.17
2018-06-25T13:54:05.887Z,1.20
2018-06-25T13:59:09.112Z,1.63
2018-06-25T14:04:12.156Z,6.80
2018-06-25T14:09:15.205Z,1.60
2018-06-25T14:14:18.237Z,1.60
2018-06-25T14:19:21.616Z,1.93
2018-06-25T14:24:30.515Z,1.60
2018-06-25T14:29:35.009Z,1.87
2018-06-25T14:34:38.879Z,1.30
2018-06-25T14:39:42.024Z,1.27
2018-06-25T14:44:45.159Z,2.10
2018-06-25T14:49:48.236Z,2.90
2018-06-25T14:54:51.493Z,1.53
2018-06-25T14:59:54.523Z,4.10
2018-06-25T15:04:57.879Z,1.53
2018-06-25T15:10:01.098Z,1.40
2018-06-25T15:15:04.633Z,3.30
2018-06-25T15:20:07.769Z,1.30
2018-06-25T15:25:10.797Z,1.93
2018-06-25T15:30:13.872Z,2.53
2018-06-25T15:35:17.236Z,1.77
2018-06-25T15:40:20.364Z,4.10
2018-06-25T15:45:23.431Z,2.53
2018-06-25T15:50:26.484Z,3.03
2018-06-25T15:55:29.573Z,2.60
2018-06-25T16:00:33.366Z,6.27
2018-06-25T16:05:36.584Z,6.33
2018-06-25T16:10:39.923Z,6.87
2018-06-25T16:15:43.168Z,3.10
2018-06-25T16:20:46.210Z,3.30
2018-06-25T16:25:49.232Z,4.70
2018-06-25T16:30:52.525Z,7.03
2018-06-25T16:35:55.836Z,2.50
2018-06-25T16:40:58.969Z,3.73
2018-06-25T16:46:02.015Z,4.00
2018-06-25T16:51:05.579Z,4.60
2018-06-25T16:56:08.682Z,4.43
2018-06-25T17:01:12.083Z,4.00
2018-06-25T17:06:15.175Z,5.73
2018-06-25T17:11:18.519Z,5.03
2018-06-25T17:16:21.648Z,6.50
2018-06-25T17:21:24.708Z,8.83
2018-06-25T17:26:28.535Z,7.47
2018-06-25T17:31:31.849Z,12.50
2018-06-25T17:36:35.318Z,9.57
2018-06-25T17:41:38.585Z,12.33
2018-06-25T17:46:41.644Z,6.60
2018-06-25T17:51:44.901Z,5.63
2018-06-25T17:56:48.088Z,8.13
2018-06-25T18:01:51.400Z,10.30
2018-06-25T18:06:54.715Z,7.30
2018-06-25T18:11:57.727Z,9.90
2018-06-25T18:17:01.036Z,11.40
2018-06-25T18:22:04.189Z,7.13
2018-06-25T18:27:07.226Z,7.90
2018-06-25T18:32:10.467Z,7.50
2018-06-25T18:37:13.522Z,11.40
2018-06-25T18:42:16.624Z,8.80
2018-06-25T18:47:20.077Z,7.20
2018-06-25T18:52:24.084Z,8.27
2018-06-25T18:57:27.458Z,6.83
2018-06-25T19:02:30.529Z,9.20
2018-06-25T19:07:34.323Z,7.10
2018-06-25T19:12:37.392Z,7.00
2018-06-25T19:17:40.336Z,8.20
2018-06-25T19:22:43.483Z,8.60
2018-06-25T19:27:46.662Z,6.30
2018-06-25T19:32:49.610Z,9.00
2018-06-25T19:37:52.607Z,9.63
2018-06-25T19:42:55.881Z,7.50
2018-06-25T19:47:58.976Z,9.07
2018-06-25T19:53:02.459Z,8.30
2018-06-25T19:58:05.365Z,9.50
2018-06-25T20:03:08.332Z,10.63
2018-06-25T20:08:11.326Z,10.37
2018-06-25T20:13:14.396Z,10.90
2018-06-25T20:18:17.430Z,10.83
2018-06-25T20:23:20.385Z,20.87
2018-06-25T20:28:23.387Z,17.60
2018-06-25T20:33:26.855Z,11.50
2018-06-25T20:38:29.899Z,17.50
2018-06-25T20:43:32.882Z,22.23
2018-06-25T20:48:36.305Z,27.83
2018-06-25T20:53:39.486Z,31.50
2018-06-25T20:58:42.652Z,21.23
2018-06-25T21:03:46.284Z,20.23
2018-06-25T21:08:49.356Z,15.43
2018-06-25T21:13:52.824Z,18.43
2018-06-25T21:18:56.146Z,27.67
2018-06-25T21:23:59.172Z,18.40
2018-06-25T21:29:02.340Z,17.20
2018-06-25T21:34:05.803Z,25.63
2018-06-25T21:39:09.105Z,17.10
2018-06-25T21:44:12.207Z,18.30
2018-06-25T21:49:15.384Z,20.93
2018-06-25T21:54:18.584Z,16.87
2018-06-25T21:59:21.870Z,23.40
2018-06-25T22:04:26.152Z,23.80
2018-06-25T22:09:29.196Z,16.80
2018-06-25T22:14:32.220Z,20.10
2018-06-25T22:19:35.269Z,20.67
2018-06-25T22:24:38.269Z,18.67
2018-06-25T22:29:41.332Z,24.00
2018-06-25T22:34:44.403Z,19.97
2018-06-25T22:39:47.458Z,24.57
2018-06-25T22:44:50.477Z,18.87
2018-06-25T22:49:53.483Z,27.87
2018-06-25T22:54:56.632Z,23.40
2018-06-25T22:59:59.772Z,21.20
2018-06-25T23:05:03.107Z,24.67
2018-06-25T23:10:06.310Z,23.13
2018-06-25T23:15:09.522Z,22.80
2018-06-25T23:20:12.536Z,21.80
2018-06-25T23:25:15.552Z,22.30
2018-06-25T23:30:18.788Z,26.70
2018-06-25T23:35:22.047Z,21.43
2018-06-25T23:40:25.032Z,20.23
2018-06-25T23:45:28.060Z,21.90
2018-06-25T23:50:31.136Z,23.27
2018-06-25T23:55:34.280Z,24.03
